• Join FlightAware (Why Join?)
  • Login
  • US Flag 
05:09AM EDT


 

Airport Tracker/Info


-or-


 

Live Flight TrackerFlight Track Log ✈ LXJ437 ✈ 21-Jun-2013 ✈ KCCR - KSNA

Flight Track Log - Related Links

Times and Time Zones

All times are in EDT time to prevent confusion due to time zone crossing. See the LXJ437 flight status page for this flight to view local times or setup timezone preferences in your user account.

Time Position Orientation Groundspeed Altitude Reporting Facility
EDT Latitude Longitude Course Direction KTS MPH feet Rate Location/Type
07:35PM 37.9589 -122.0556 36° Northeast 144 166 2,300  Level Oakland Center
07:37PM 37.9944 -122.0222 36° Northeast 228 262 3,900 2,160 Climbing Oakland Center
07:38PM 38.0464 -121.9653 41° Northeast 271 312 6,800 2,820 Climbing Oakland Center
07:39PM 38.0500 -121.8619 87° East 291 335 9,800 2,280 Climbing Oakland Center
07:40PM 38.0194 -121.7431 108° East 360 414 11,500 1,140 Climbing Oakland Center
07:41PM 37.9731 -121.6175 115° Southeast 398 458 12,200 2,460 Climbing Oakland Center
07:42PM 37.8642 -121.5883 168° South 402 463 16,700 4,140 Climbing Oakland Center
07:42PM 37.7833 -121.5667 168° South 414 476 18,900 780 Climbing Northern Cal TRACON
07:45PM 37.5372 -121.3822 149° Southeast 453 521 19,200 300 Climbing Oakland Center
07:46PM 37.4081 -121.2836 149° Southeast 453 521 20,000 360 Climbing Oakland Center
07:47PM 37.3086 -121.2075 149° Southeast 460 529 20,000 600 Level Oakland Center
07:48PM 37.1883 -121.1072 146° Southeast 470 541 21,300 960 Climbing Oakland Center
07:49PM 37.0981 -121.0061 138° Southeast 486 559 22,000 1,920 Climbing Oakland Center
07:50PM 36.9894 -120.8561 132° Southeast 483 556 25,300 2,400 Climbing Oakland Center
07:51PM 36.8925 -120.7497 139° Southeast 472 543 27,000 1,500 Climbing Oakland Center
07:52PM 36.7778 -120.6672 150° Southeast 503 579 28,400 2,340 Climbing Oakland Center
07:53PM 36.6572 -120.5889 152° Southeast 495 570 31,800 3,060 Climbing Oakland Center
07:54PM 36.5422 -120.5244 156° South 463 533 34,700 2,820 Climbing Oakland Center
07:55PM 36.4072 -120.4681 161° South 430 495 37,700 2,340 Climbing Oakland Center
07:56PM 36.2961 -120.4231 162° South 422 486 39,600 1,440 Climbing Oakland Center
07:57PM 36.1875 -120.3686 158° South 421 484 40,700 660 Climbing Oakland Center
07:58PM 36.0811 -120.2900 149° Southeast 439 505 41,000 120 Climbing Oakland Center
07:59PM 35.9656 -120.2075 150° Southeast 470 541 41,000  Level Oakland Center
08:00PM 35.8456 -120.1225 150° Southeast 490 564 41,000  Level Oakland Center
08:01PM 35.7272 -120.0361 149° Southeast 491 565 41,000  Level Oakland Center
08:02PM 35.6111 -119.9494 149° Southeast 483 556 41,000  Level Los Angeles Center
08:03PM 35.4994 -119.8492 144° Southeast 489 563 41,000  Level Los Angeles Center
08:04PM 35.3856 -119.7528 145° Southeast 492 566 41,000  Level Los Angeles Center
08:05PM 35.2747 -119.6567 145° Southeast 488 562 41,000  Level Los Angeles Center
08:06PM 35.1639 -119.5614 145° Southeast 486 559 41,000  Level Los Angeles Center
08:07PM 35.0514 -119.4658 145° Southeast 489 563 41,000  Level Los Angeles Center
08:08PM 34.9192 -119.3519 145° Southeast 485 558 41,000 -180 Level Los Angeles Center
08:09PM 34.8075 -119.2564 145° Southeast 488 562 40,700 -1,380 Descending Los Angeles Center
08:10PM 34.6967 -119.1653 146° Southeast 482 555 38,200 -2,940 Descending Los Angeles Center
08:11PM 34.5847 -119.0731 146° Southeast 474 545 34,700 -3,480 Descending Los Angeles Center
08:12PM 34.4781 -118.9833 145° Southeast 469 540 31,100 -3,540 Descending Los Angeles Center
08:13PM 34.3647 -118.8911 146° Southeast 490 564 27,400 -3,660 Descending Los Angeles Center
08:14PM 34.2358 -118.8356 160° South 491 565 23,600 -3,960 Descending Los Angeles Center
08:16PM 34.0903 -118.7844 164° South 451 519 19,300 -3,840 Descending Los Angeles Center
08:17PM 33.9731 -118.7414 163° South 432 497 15,700 -2,520 Descending Los Angeles Center
08:18PM 33.8578 -118.6994 163° South 405 466 14,100 -1,260 Descending Los Angeles Center
08:19PM 33.7628 -118.6644 163° South 404 465 13,200 -1,920 Descending Los Angeles Center
08:20PM 33.6608 -118.5917 149° Southeast 363 418 10,200 -2,280 Descending Los Angeles Center
08:21PM 33.6053 -118.5106 129° Southeast 322 371 8,500 -1,620 Descending Los Angeles Center
08:22PM 33.5508 -118.4361 131° Southeast 304 350 6,900 -1,200 Descending Los Angeles Center
08:23PM 33.5225 -118.3672 116° Southeast 308 354 6,100 -900 Descending Los Angeles Center
08:24PM 33.5289 -118.2553 86° East 299 344 5,100 -540 Descending Los Angeles Center
08:25PM 33.5750 -118.1578 60° Northeast 289 333 5,000 -120 Descending Los Angeles Center
08:26PM 33.6136 -118.0778 60° Northeast 283 326 4,900 -60 Descending Los Angeles Center
08:27PM 33.6650 -118.0094 48° Northeast 284 327 4,900 -120 Level Los Angeles Center
08:28PM 33.7333 -117.9333 43° Northeast 264 304 4,700 -900 Descending Southern California TRACON
08:29PM 33.7833 -117.8833 40° Northeast 246 283 3,300 -1,080 Descending Southern California TRACON
08:30PM 33.7500 -117.8333 129° Southeast 174 200 2,600 -1,140 Descending Southern California TRACON
08:31PM 33.7167 -117.8500 203° Southwest 140 161 1,100 -1,200 Descending Southern California TRACON
08:32PM 33.6833 -117.8667 203° Southwest 119 137 200 -900 Descending Southern California TRACON
08:34PM 33.6757 -117.8682 North  Level Estimated
08:41PM 33.6757 -117.8682 North  Level Estimated